Terminal Aerodrome Forecast
Issued by NWS Sioux Falls, SD

Home | Current Version | Previous Version | Graphics & Text | Print | Product List | Glossary On
Versions: 1 2 3 4 5 6 7 8 9 10 11 12 13 14 15 16 17 18 19 20
000
FTUS43 KFSD 231122
TAFFSD
TAF
KFSD 231122Z 2312/2412 36012KT P6SM OVC008
      TEMPO 2312/2314 4SM -SN BR OVC004
     FM231500 36014G20KT 3SM BR OVC006
     FM231900 35018G26KT 4SM BR OVC008
     FM240200 33014KT P6SM OVC012=

USA.gov is the U.S. government's official web portal to all federal, state and local government web resources and services.